sensor_id;sensor_type;location;lat;lon;timestamp;pressure;altitude;pressure_sealevel;temperature;humidity
66021;BME280;52789;59.980;30.346;2023-05-19T00:01:07;102672.13;;;8.03;88.36
66021;BME280;52789;59.980;30.346;2023-05-19T00:03:33;102675.94;;;7.99;88.51
66021;BME280;52789;59.980;30.346;2023-05-19T00:06:00;102683.53;;;7.91;87.11
66021;BME280;52789;59.980;30.346;2023-05-19T00:08:26;102682.88;;;7.87;87.01
66021;BME280;52789;59.980;30.346;2023-05-19T00:10:53;102677.78;;;7.84;86.11
66021;BME280;52789;59.980;30.346;2023-05-19T00:13:19;102685.84;;;7.83;86.66
66021;BME280;52789;59.980;30.346;2023-05-19T00:15:45;102689.81;;;7.75;85.73
66021;BME280;52789;59.980;30.346;2023-05-19T00:18:10;102689.06;;;7.73;86.01
66021;BME280;52789;59.980;30.346;2023-05-19T00:20:38;102699.75;;;7.72;85.41
66021;BME280;52789;59.980;30.346;2023-05-19T00:23:03;102701.00;;;7.66;85.05
66021;BME280;52789;59.980;30.346;2023-05-19T00:25:28;102691.63;;;7.61;85.29
66021;BME280;52789;59.980;30.346;2023-05-19T00:27:54;102699.88;;;7.56;85.33
66021;BME280;52789;59.980;30.346;2023-05-19T00:30:19;102699.13;;;7.54;85.16
66021;BME280;52789;59.980;30.346;2023-05-19T00:32:46;102701.09;;;7.51;85.50
66021;BME280;52789;59.980;30.346;2023-05-19T00:35:12;102704.59;;;7.51;84.86
66021;BME280;52789;59.980;30.346;2023-05-19T00:37:37;102704.69;;;7.50;85.52
66021;BME280;52789;59.980;30.346;2023-05-19T00:40:03;102713.59;;;7.49;85.19
66021;BME280;52789;59.980;30.346;2023-05-19T00:42:30;102708.50;;;7.45;85.12
66021;BME280;52789;59.980;30.346;2023-05-19T00:44:56;102711.22;;;7.44;84.86
66021;BME280;52789;59.980;30.346;2023-05-19T00:47:22;102717.69;;;7.40;85.10
66021;BME280;52789;59.980;30.346;2023-05-19T00:49:47;102720.63;;;7.35;84.91
66021;BME280;52789;59.980;30.346;2023-05-19T00:52:12;102718.16;;;7.32;84.82
66021;BME280;52789;59.980;30.346;2023-05-19T00:54:38;102725.06;;;7.35;84.74
66021;BME280;52789;59.980;30.346;2023-05-19T00:57:03;102725.16;;;7.33;85.09
66021;BME280;52789;59.980;30.346;2023-05-19T00:59:28;102724.50;;;7.30;84.95
66021;BME280;52789;59.980;30.346;2023-05-19T01:01:54;102733.41;;;7.29;84.86
66021;BME280;52789;59.980;30.346;2023-05-19T01:04:20;102735.28;;;7.27;85.14
66021;BME280;52789;59.980;30.346;2023-05-19T01:06:48;102740.59;;;7.27;84.69
66021;BME280;52789;59.980;30.346;2023-05-19T01:09:19;102744.00;;;7.29;84.16
66021;BME280;52789;59.980;30.346;2023-05-19T01:11:45;102740.59;;;7.27;84.52
66021;BME280;52789;59.980;30.346;2023-05-19T01:14:10;102749.50;;;7.26;84.53
66021;BME280;52789;59.980;30.346;2023-05-19T01:16:37;102752.91;;;7.28;84.26
66021;BME280;52789;59.980;30.346;2023-05-19T01:19:09;102759.91;;;7.29;84.08
66021;BME280;52789;59.980;30.346;2023-05-19T01:24:23;102747.78;;;7.25;84.28
66021;BME280;52789;59.980;30.346;2023-05-19T01:27:40;102758.53;;;7.22;84.21
66021;BME280;52789;59.980;30.346;2023-05-19T01:32:11;102759.25;;;7.25;83.76
66021;BME280;52789;59.980;30.346;2023-05-19T01:34:41;102767.09;;;7.27;84.09
66021;BME280;52789;59.980;30.346;2023-05-19T01:37:08;102762.56;;;7.29;83.66
66021;BME280;52789;59.980;30.346;2023-05-19T01:39:34;102766.91;;;7.30;84.00
66021;BME280;52789;59.980;30.346;2023-05-19T01:41:59;102761.59;;;7.30;83.62
66021;BME280;52789;59.980;30.346;2023-05-19T01:44:26;102775.63;;;7.32;83.91
66021;BME280;52789;59.980;30.346;2023-05-19T01:46:51;102771.06;;;7.34;84.01
66021;BME280;52789;59.980;30.346;2023-05-19T01:49:17;102771.06;;;7.34;84.56
66021;BME280;52789;59.980;30.346;2023-05-19T01:51:42;102776.94;;;7.39;84.51
66021;BME280;52789;59.980;30.346;2023-05-19T01:54:08;102781.28;;;7.40;83.73
66021;BME280;52789;59.980;30.346;2023-05-19T01:56:49;102789.25;;;7.40;83.55
66021;BME280;52789;59.980;30.346;2023-05-19T01:59:26;102788.50;;;7.38;83.64
66021;BME280;52789;59.980;30.346;2023-05-19T02:01:57;102799.00;;;7.39;83.34
66021;BME280;52789;59.980;30.346;2023-05-19T02:04:28;102786.69;;;7.38;81.35
66021;BME280;52789;59.980;30.346;2023-05-19T02:07:00;102799.84;;;7.40;81.02
66021;BME280;52789;59.980;30.346;2023-05-19T02:14:29;102809.88;;;7.35;81.21
66021;BME280;52789;59.980;30.346;2023-05-19T02:16:58;102796.72;;;7.33;80.94
66021;BME280;52789;59.980;30.346;2023-05-19T02:19:25;102800.03;;;7.37;81.39
66021;BME280;52789;59.980;30.346;2023-05-19T02:21:50;102804.31;;;7.39;81.22
66021;BME280;52789;59.980;30.346;2023-05-19T02:24:16;102811.50;;;7.37;81.08
66021;BME280;52789;59.980;30.346;2023-05-19T02:26:41;102812.34;;;7.38;80.82
66021;BME280;52789;59.980;30.346;2023-05-19T02:29:07;102805.53;;;7.34;81.39
66021;BME280;52789;59.980;30.346;2023-05-19T02:31:33;102810.84;;;7.34;81.07
66021;BME280;52789;59.980;30.346;2023-05-19T02:33:58;102807.03;;;7.38;80.99
66021;BME280;52789;59.980;30.346;2023-05-19T02:36:23;102811.13;;;7.43;81.07
66021;BME280;52789;59.980;30.346;2023-05-19T02:38:50;102799.66;;;7.43;80.69
66021;BME280;52789;59.980;30.346;2023-05-19T02:41:16;102809.31;;;7.44;80.76
66021;BME280;52789;59.980;30.346;2023-05-19T02:43:41;102806.47;;;7.47;81.36
66021;BME280;52789;59.980;30.346;2023-05-19T02:46:06;102817.69;;;7.52;80.76
66021;BME280;52789;59.980;30.346;2023-05-19T02:48:31;102811.34;;;7.55;80.40
66021;BME280;52789;59.980;30.346;2023-05-19T02:50:57;102814.75;;;7.57;80.51
66021;BME280;52789;59.980;30.346;2023-05-19T02:53:22;102808.22;;;7.62;80.19
66021;BME280;52789;59.980;30.346;2023-05-19T02:55:47;102809.72;;;7.66;79.82
66021;BME280;52789;59.980;30.346;2023-05-19T02:58:13;102819.88;;;7.74;80.16
66021;BME280;52789;59.980;30.346;2023-05-19T03:00:38;102816.00;;;7.94;80.17
66021;BME280;52789;59.980;30.346;2023-05-19T03:03:03;102808.22;;;9.27;75.90
66021;BME280;52789;59.980;30.346;2023-05-19T03:05:29;102814.63;;;11.55;69.75
66021;BME280;52789;59.980;30.346;2023-05-19T03:07:55;102812.72;;;13.52;62.44
66021;BME280;52789;59.980;30.346;2023-05-19T03:10:20;102822.66;;;14.32;53.09
66021;BME280;52789;59.980;30.346;2023-05-19T03:12:45;102827.56;;;14.96;50.83
66021;BME280;52789;59.980;30.346;2023-05-19T03:15:11;102829.84;;;15.10;48.86
66021;BME280;52789;59.980;30.346;2023-05-19T03:17:37;102820.69;;;15.79;48.74
66021;BME280;52789;59.980;30.346;2023-05-19T03:20:03;102830.44;;;16.17;45.36
66021;BME280;52789;59.980;30.346;2023-05-19T03:22:29;102833.69;;;15.84;44.27
66021;BME280;52789;59.980;30.346;2023-05-19T03:24:54;102828.50;;;15.53;45.72
66021;BME280;52789;59.980;30.346;2023-05-19T03:27:20;102839.41;;;14.65;48.24
66021;BME280;52789;59.980;30.346;2023-05-19T03:29:45;102840.78;;;13.58;49.92
66021;BME280;52789;59.980;30.346;2023-05-19T03:32:10;102847.41;;;12.58;52.41
66021;BME280;52789;59.980;30.346;2023-05-19T03:34:36;102849.97;;;11.70;55.12
66021;BME280;52789;59.980;30.346;2023-05-19T03:37:01;102860.50;;;11.25;58.18
66021;BME280;52789;59.980;30.346;2023-05-19T03:39:26;102855.03;;;10.92;58.79
66021;BME280;52789;59.980;30.346;2023-05-19T03:41:52;102852.69;;;10.63;60.03
66021;BME280;52789;59.980;30.346;2023-05-19T03:44:17;102860.56;;;10.28;61.78
66021;BME280;52789;59.980;30.346;2023-05-19T03:46:42;102857.81;;;10.04;63.21
66021;BME280;52789;59.980;30.346;2023-05-19T03:49:07;102859.41;;;9.94;63.32
66021;BME280;52789;59.980;30.346;2023-05-19T03:51:33;102864.72;;;10.19;63.58
66021;BME280;52789;59.980;30.346;2023-05-19T03:54:00;102867.97;;;11.44;58.48
66021;BME280;52789;59.980;30.346;2023-05-19T03:56:27;102859.13;;;12.23;56.02
66021;BME280;52789;59.980;30.346;2023-05-19T03:58:52;102865.91;;;12.05;55.66
66021;BME280;52789;59.980;30.346;2023-05-19T04:01:18;102888.38;;;13.01;53.60
66021;BME280;52789;59.980;30.346;2023-05-19T04:03:44;102879.06;;;14.21;49.68
66021;BME280;52789;59.980;30.346;2023-05-19T04:06:10;102887.72;;;15.03;47.20
66021;BME280;52789;59.980;30.346;2023-05-19T04:27:24;102896.38;;;15.07;45.68
66021;BME280;52789;59.980;30.346;2023-05-19T04:45:16;102898.66;;;12.74;51.94
66021;BME280;52789;59.980;30.346;2023-05-19T04:47:42;102898.53;;;12.76;51.77
66021;BME280;52789;59.980;30.346;2023-05-19T04:50:08;102901.94;;;12.66;52.11
66021;BME280;52789;59.980;30.346;2023-05-19T04:52:35;102898.91;;;12.60;52.29
66021;BME280;52789;59.980;30.346;2023-05-19T04:55:01;102907.41;;;12.65;52.22
66021;BME280;52789;59.980;30.346;2023-05-19T04:57:28;102899.06;;;12.47;52.24
66021;BME280;52789;59.980;30.346;2023-05-19T04:59:53;102902.00;;;12.22;53.78
66021;BME280;52789;59.980;30.346;2023-05-19T05:02:26;102900.00;;;12.80;52.52
66021;BME280;52789;59.980;30.346;2023-05-19T05:04:52;102895.72;;;13.31;50.79
66021;BME280;52789;59.980;30.346;2023-05-19T05:07:21;102897.59;;;13.41;50.76
66021;BME280;52789;59.980;30.346;2023-05-19T05:09:46;102896.63;;;13.42;50.01
66021;BME280;52789;59.980;30.346;2023-05-19T05:12:13;102898.34;;;12.99;49.81
66021;BME280;52789;59.980;30.346;2023-05-19T05:14:38;102904.16;;;12.28;51.98
66021;BME280;52789;59.980;30.346;2023-05-19T05:17:04;102908.00;;;11.44;54.16
66021;BME280;52789;59.980;30.346;2023-05-19T05:19:30;102904.38;;;10.97;55.97
66021;BME280;52789;59.980;30.346;2023-05-19T05:21:55;102901.66;;;10.86;57.23
66021;BME280;52789;59.980;30.346;2023-05-19T05:24:21;102894.88;;;10.69;57.68
66021;BME280;52789;59.980;30.346;2023-05-19T05:26:46;102904.84;;;10.54;58.70
66021;BME280;52789;59.980;30.346;2023-05-19T05:29:12;102907.63;;;10.40;58.10
66021;BME280;52789;59.980;30.346;2023-05-19T05:31:37;102902.53;;;10.37;58.98
66021;BME280;52789;59.980;30.346;2023-05-19T05:34:02;102903.94;;;10.43;59.94
66021;BME280;52789;59.980;30.346;2023-05-19T05:36:28;102910.91;;;10.57;59.11
66021;BME280;52789;59.980;30.346;2023-05-19T05:38:55;102903.66;;;10.71;58.33
66021;BME280;52789;59.980;30.346;2023-05-19T05:41:21;102915.00;;;11.10;57.91
66021;BME280;52789;59.980;30.346;2023-05-19T05:43:49;102910.03;;;11.40;55.55
66021;BME280;52789;59.980;30.346;2023-05-19T05:46:17;102920.44;;;11.67;54.94
66021;BME280;52789;59.980;30.346;2023-05-19T05:48:43;102918.59;;;12.03;53.74
66021;BME280;52789;59.980;30.346;2023-05-19T05:51:08;102923.34;;;12.10;52.97
66021;BME280;52789;59.980;30.346;2023-05-19T05:53:35;102933.94;;;11.77;53.38
66021;BME280;52789;59.980;30.346;2023-05-19T05:56:10;102928.63;;;11.53;52.91
66021;BME280;52789;59.980;30.346;2023-05-19T05:58:36;102928.63;;;11.53;52.86
66021;BME280;52789;59.980;30.346;2023-05-19T06:01:02;102934.91;;;11.41;53.43
66021;BME280;52789;59.980;30.346;2023-05-19T06:03:28;102936.16;;;11.24;53.84
66021;BME280;52789;59.980;30.346;2023-05-19T06:05:56;102933.44;;;11.13;54.68
66021;BME280;52789;59.980;30.346;2023-05-19T06:08:21;102941.59;;;11.23;54.47
66021;BME280;52789;59.980;30.346;2023-05-19T06:10:46;102927.38;;;11.11;54.86
66021;BME280;52789;59.980;30.346;2023-05-19T06:13:12;102934.41;;;11.12;55.50
66021;BME280;52789;59.980;30.346;2023-05-19T06:15:37;102934.03;;;11.29;55.34
66021;BME280;52789;59.980;30.346;2023-05-19T06:18:03;102944.22;;;11.35;54.91
66021;BME280;52789;59.980;30.346;2023-05-19T06:20:28;102947.78;;;11.23;54.91
66021;BME280;52789;59.980;30.346;2023-05-19T06:22:53;102942.22;;;11.26;55.44
66021;BME280;52789;59.980;30.346;2023-05-19T06:25:19;102941.56;;;11.35;55.21
66021;BME280;52789;59.980;30.346;2023-05-19T06:27:45;102943.69;;;11.54;55.23
66021;BME280;52789;59.980;30.346;2023-05-19T06:30:10;102937.38;;;11.55;54.58
66021;BME280;52789;59.980;30.346;2023-05-19T06:32:36;102943.78;;;11.53;55.30
66021;BME280;52789;59.980;30.346;2023-05-19T06:35:01;102949.19;;;11.64;55.33
66021;BME280;52789;59.980;30.346;2023-05-19T06:37:28;102954.56;;;11.75;53.86
66021;BME280;52789;59.980;30.346;2023-05-19T06:39:53;102942.88;;;11.89;53.73
66021;BME280;52789;59.980;30.346;2023-05-19T06:42:19;102945.66;;;11.98;54.42
66021;BME280;52789;59.980;30.346;2023-05-19T06:44:51;102955.38;;;11.88;53.64
66021;BME280;52789;59.980;30.346;2023-05-19T06:47:17;102953.31;;;11.68;53.39
66021;BME280;52789;59.980;30.346;2023-05-19T06:49:45;102945.13;;;11.47;53.83
66021;BME280;52789;59.980;30.346;2023-05-19T06:52:16;102944.75;;;11.52;54.55
66021;BME280;52789;59.980;30.346;2023-05-19T06:54:41;102943.00;;;11.63;55.06
66021;BME280;52789;59.980;30.346;2023-05-19T06:57:07;102937.53;;;11.65;54.61
66021;BME280;52789;59.980;30.346;2023-05-19T06:59:32;102940.72;;;11.70;54.82
66021;BME280;52789;59.980;30.346;2023-05-19T07:01:57;102950.41;;;11.95;54.55
66021;BME280;52789;59.980;30.346;2023-05-19T07:04:23;102945.56;;;12.11;53.57
66021;BME280;52789;59.980;30.346;2023-05-19T07:06:48;102937.41;;;12.01;53.45
66021;BME280;52789;59.980;30.346;2023-05-19T07:09:14;102949.78;;;11.91;53.36
66021;BME280;52789;59.980;30.346;2023-05-19T07:11:39;102942.34;;;11.84;52.99
66021;BME280;52789;59.980;30.346;2023-05-19T07:14:05;102936.69;;;11.99;53.45
66021;BME280;52789;59.980;30.346;2023-05-19T07:16:30;102940.09;;;12.01;53.33
66021;BME280;52789;59.980;30.346;2023-05-19T07:18:59;102941.78;;;12.02;52.76
66021;BME280;52789;59.980;30.346;2023-05-19T07:21:30;102941.72;;;11.80;52.65
66021;BME280;52789;59.980;30.346;2023-05-19T07:23:55;102946.75;;;11.61;53.28
66021;BME280;52789;59.980;30.346;2023-05-19T07:26:23;102944.66;;;11.53;53.20
66021;BME280;52789;59.980;30.346;2023-05-19T07:28:52;102947.19;;;11.55;53.29
66021;BME280;52789;59.980;30.346;2023-05-19T07:31:17;102949.44;;;11.72;52.64
66021;BME280;52789;59.980;30.346;2023-05-19T07:33:42;102937.75;;;11.86;51.94
66021;BME280;52789;59.980;30.346;2023-05-19T07:36:08;102942.88;;;12.00;52.52
66021;BME280;52789;59.980;30.346;2023-05-19T07:38:33;102952.59;;;12.12;52.47
66021;BME280;52789;59.980;30.346;2023-05-19T07:40:59;102948.75;;;12.16;51.96
66021;BME280;52789;59.980;30.346;2023-05-19T07:43:24;102948.63;;;12.29;50.53
66021;BME280;52789;59.980;30.346;2023-05-19T07:45:50;102950.81;;;12.46;50.50
66021;BME280;52789;59.980;30.346;2023-05-19T07:48:15;102958.09;;;12.55;50.95
66021;BME280;52789;59.980;30.346;2023-05-19T07:50:42;102945.19;;;12.71;51.51
66021;BME280;52789;59.980;30.346;2023-05-19T07:53:08;102945.41;;;12.91;50.83
66021;BME280;52789;59.980;30.346;2023-05-19T07:55:33;102957.81;;;13.03;49.68
66021;BME280;52789;59.980;30.346;2023-05-19T07:57:58;102948.81;;;12.93;48.95
66021;BME280;52789;59.980;30.346;2023-05-19T08:00:24;102961.25;;;12.83;48.13
66021;BME280;52789;59.980;30.346;2023-05-19T08:02:49;102949.34;;;12.76;49.07
66021;BME280;52789;59.980;30.346;2023-05-19T08:05:19;102957.34;;;12.87;48.51
66021;BME280;52789;59.980;30.346;2023-05-19T08:07:45;102951.59;;;12.91;48.27
66021;BME280;52789;59.980;30.346;2023-05-19T08:10:10;102950.84;;;13.00;47.78
66021;BME280;52789;59.980;30.346;2023-05-19T08:12:35;102950.59;;;13.15;47.83
66021;BME280;52789;59.980;30.346;2023-05-19T08:15:00;102941.22;;;13.31;47.49
66021;BME280;52789;59.980;30.346;2023-05-19T08:17:26;102950.88;;;13.44;48.27
66021;BME280;52789;59.980;30.346;2023-05-19T08:19:51;102949.91;;;13.45;47.17
66021;BME280;52789;59.980;30.346;2023-05-19T08:22:17;102957.41;;;13.19;46.87
66021;BME280;52789;59.980;30.346;2023-05-19T08:24:42;102964.00;;;13.03;47.17
66021;BME280;52789;59.980;30.346;2023-05-19T08:27:08;102961.44;;;13.02;47.29
66021;BME280;52789;59.980;30.346;2023-05-19T08:29:34;102954.97;;;13.16;47.89
66021;BME280;52789;59.980;30.346;2023-05-19T08:32:00;102953.56;;;13.44;47.27
66021;BME280;52789;59.980;30.346;2023-05-19T08:34:26;102951.09;;;13.73;45.44
66021;BME280;52789;59.980;30.346;2023-05-19T08:36:52;102957.25;;;13.84;44.44
66021;BME280;52789;59.980;30.346;2023-05-19T08:39:17;102947.00;;;13.89;44.91
66021;BME280;52789;59.980;30.346;2023-05-19T08:41:48;102943.22;;;13.92;43.08
66021;BME280;52789;59.980;30.346;2023-05-19T08:44:13;102949.91;;;13.86;43.89
66021;BME280;52789;59.980;30.346;2023-05-19T08:46:38;102955.28;;;13.86;43.33
66021;BME280;52789;59.980;30.346;2023-05-19T08:49:06;102955.28;;;13.86;44.22
66021;BME280;52789;59.980;30.346;2023-05-19T08:54:13;102950.44;;;14.01;45.15
66021;BME280;52789;59.980;30.346;2023-05-19T08:56:38;102955.13;;;14.09;45.33
66021;BME280;52789;59.980;30.346;2023-05-19T08:59:04;102958.97;;;14.16;45.31
66021;BME280;52789;59.980;30.346;2023-05-19T09:01:30;102958.88;;;13.97;43.60
66021;BME280;52789;59.980;30.346;2023-05-19T09:03:56;102954.06;;;13.90;43.57
66021;BME280;52789;59.980;30.346;2023-05-19T09:06:22;102961.84;;;13.93;43.19
66021;BME280;52789;59.980;30.346;2023-05-19T09:08:48;102969.59;;;13.76;42.68
66021;BME280;52789;59.980;30.346;2023-05-19T09:11:13;102975.16;;;13.63;42.37
66021;BME280;52789;59.980;30.346;2023-05-19T09:13:39;102966.63;;;13.58;43.00
66021;BME280;52789;59.980;30.346;2023-05-19T09:16:04;102960.72;;;13.75;43.10
66021;BME280;52789;59.980;30.346;2023-05-19T09:18:30;102957.63;;;14.01;44.11
66021;BME280;52789;59.980;30.346;2023-05-19T09:20:56;102962.88;;;14.33;43.99
66021;BME280;52789;59.980;30.346;2023-05-19T09:23:24;102957.78;;;14.50;50.60
66021;BME280;52789;59.980;30.346;2023-05-19T09:25:52;102964.66;;;14.43;52.35
66021;BME280;52789;59.980;30.346;2023-05-19T09:28:28;102949.09;;;14.37;53.34
66021;BME280;52789;59.980;30.346;2023-05-19T09:31:01;102950.50;;;14.41;53.09
66021;BME280;52789;59.980;30.346;2023-05-19T09:33:27;102958.22;;;14.46;53.45
66021;BME280;52789;59.980;30.346;2023-05-19T09:35:56;102964.91;;;14.40;54.07
66021;BME280;52789;59.980;30.346;2023-05-19T09:38:24;102958.03;;;14.17;54.57
66021;BME280;52789;59.980;30.346;2023-05-19T09:40:57;102953.25;;;14.00;54.57
66021;BME280;52789;59.980;30.346;2023-05-19T09:43:22;102950.59;;;14.00;54.92
66021;BME280;52789;59.980;30.346;2023-05-19T09:45:48;102950.59;;;14.00;54.75
66021;BME280;52789;59.980;30.346;2023-05-19T09:48:18;102955.69;;;14.03;55.32
66021;BME280;52789;59.980;30.346;2023-05-19T09:50:47;102947.22;;;14.07;54.18
66021;BME280;52789;59.980;30.346;2023-05-19T09:53:13;102955.13;;;14.09;54.99
66021;BME280;52789;59.980;30.346;2023-05-19T09:55:38;102959.34;;;14.02;55.48
66021;BME280;52789;59.980;30.346;2023-05-19T09:58:05;102949.91;;;14.07;55.31
66021;BME280;52789;59.980;30.346;2023-05-19T10:00:31;102949.25;;;14.15;54.76
66021;BME280;52789;59.980;30.346;2023-05-19T10:02:57;102952.88;;;14.04;54.22
66021;BME280;52789;59.980;30.346;2023-05-19T10:05:24;102952.91;;;14.14;53.85
66021;BME280;52789;59.980;30.346;2023-05-19T10:07:51;102951.88;;;14.26;53.38
66021;BME280;52789;59.980;30.346;2023-05-19T10:10:18;102951.31;;;14.32;52.78
66021;BME280;52789;59.980;30.346;2023-05-19T10:12:45;102937.59;;;14.46;53.37
66021;BME280;52789;59.980;30.346;2023-05-19T10:15:12;102941.59;;;14.62;54.09
66021;BME280;52789;59.980;30.346;2023-05-19T10:17:38;102930.75;;;14.73;54.43
66021;BME280;52789;59.980;30.346;2023-05-19T10:20:05;102940.53;;;14.93;53.39
66021;BME280;52789;59.980;30.346;2023-05-19T10:22:35;102931.78;;;14.91;52.17
66021;BME280;52789;59.980;30.346;2023-05-19T10:25:00;102931.91;;;14.80;52.45
66021;BME280;52789;59.980;30.346;2023-05-19T10:27:26;102931.22;;;14.78;52.98
66021;BME280;52789;59.980;30.346;2023-05-19T10:29:52;102941.34;;;14.74;52.94
66021;BME280;52789;59.980;30.346;2023-05-19T10:32:22;102938.66;;;14.74;52.47
66021;BME280;52789;59.980;30.346;2023-05-19T10:40:20;102931.78;;;14.81;51.84
66021;BME280;52789;59.980;30.346;2023-05-19T10:42:52;102927.69;;;14.87;52.19
66021;BME280;52789;59.980;30.346;2023-05-19T10:45:21;102934.19;;;14.75;52.10
66021;BME280;52789;59.980;30.346;2023-05-19T10:47:51;102930.59;;;14.65;53.56
66021;BME280;52789;59.980;30.346;2023-05-19T10:50:16;102936.66;;;14.67;53.99
66021;BME280;52789;59.980;30.346;2023-05-19T10:52:42;102938.34;;;14.58;53.68
66021;BME280;52789;59.980;30.346;2023-05-19T10:57:54;102943.69;;;14.58;53.68
66021;BME280;52789;59.980;30.346;2023-05-19T11:00:28;102932.97;;;14.48;52.49
66021;BME280;52789;59.980;30.346;2023-05-19T11:03:14;102933.53;;;14.31;53.54
66021;BME280;52789;59.980;30.346;2023-05-19T11:05:40;102932.97;;;14.27;53.83
66021;BME280;52789;59.980;30.346;2023-05-19T11:08:06;102937.66;;;14.35;53.64
66021;BME280;52789;59.980;30.346;2023-05-19T11:10:36;102938.63;;;14.34;53.72
66021;BME280;52789;59.980;30.346;2023-05-19T11:13:03;102935.53;;;14.39;53.13
66021;BME280;52789;59.980;30.346;2023-05-19T11:15:28;102944.06;;;14.44;53.50
66021;BME280;52789;59.980;30.346;2023-05-19T11:17:58;102930.50;;;14.45;53.13
66021;BME280;52789;59.980;30.346;2023-05-19T11:20:26;102939.03;;;14.50;53.59
66021;BME280;52789;59.980;30.346;2023-05-19T11:23:14;102934.50;;;14.51;53.77
66021;BME280;52789;59.980;30.346;2023-05-19T11:25:48;102935.69;;;14.68;53.20
66021;BME280;52789;59.980;30.346;2023-05-19T11:28:15;102935.03;;;14.85;53.12
66021;BME280;52789;59.980;30.346;2023-05-19T11:30:41;102939.31;;;15.07;53.35
66021;BME280;52789;59.980;30.346;2023-05-19T11:33:09;102941.56;;;15.31;50.83
66021;BME280;52789;59.980;30.346;2023-05-19T11:35:35;102951.59;;;15.29;51.06
66021;BME280;52789;59.980;30.346;2023-05-19T11:38:01;102948.38;;;15.35;51.63
66021;BME280;52789;59.980;30.346;2023-05-19T11:40:27;102951.22;;;15.43;50.97
66021;BME280;52789;59.980;30.346;2023-05-19T11:42:53;102947.94;;;15.30;51.08
66021;BME280;52789;59.980;30.346;2023-05-19T11:45:26;102932.41;;;15.14;51.03
66021;BME280;52789;59.980;30.346;2023-05-19T11:47:55;102946.38;;;15.17;51.31
66021;BME280;52789;59.980;30.346;2023-05-19T11:50:21;102943.97;;;15.14;51.90
66021;BME280;52789;59.980;30.346;2023-05-19T11:52:47;102945.06;;;15.02;52.09
66021;BME280;52789;59.980;30.346;2023-05-19T11:55:16;102939.78;;;14.72;53.32
66021;BME280;52789;59.980;30.346;2023-05-19T11:57:49;102939.34;;;14.67;52.67
66021;BME280;52789;59.980;30.346;2023-05-19T12:00:14;102940.31;;;14.56;53.13
66021;BME280;52789;59.980;30.346;2023-05-19T12:02:40;102937.78;;;14.54;53.60
66021;BME280;52789;59.980;30.346;2023-05-19T12:05:05;102941.88;;;14.59;53.14
66021;BME280;52789;59.980;30.346;2023-05-19T12:07:31;102934.81;;;14.57;52.93
66021;BME280;52789;59.980;30.346;2023-05-19T12:09:57;102929.44;;;14.57;52.70
66021;BME280;52789;59.980;30.346;2023-05-19T12:12:23;102930.00;;;14.51;52.62
66021;BME280;52789;59.980;30.346;2023-05-19T12:14:49;102931.84;;;14.51;52.57
66021;BME280;52789;59.980;30.346;2023-05-19T12:17:18;102930.84;;;14.52;52.12
66021;BME280;52789;59.980;30.346;2023-05-19T12:19:44;102937.91;;;14.53;51.54
66021;BME280;52789;59.980;30.346;2023-05-19T12:22:10;102923.78;;;14.51;51.91
66021;BME280;52789;59.980;30.346;2023-05-19T12:24:36;102925.91;;;14.57;52.50
66021;BME280;52789;59.980;30.346;2023-05-19T12:29:39;102929.72;;;14.54;52.87
66021;BME280;52789;59.980;30.346;2023-05-19T12:32:06;102934.09;;;14.55;54.03
66021;BME280;52789;59.980;30.346;2023-05-19T12:34:34;102931.72;;;14.62;53.59
66021;BME280;52789;59.980;30.346;2023-05-19T12:37:00;102931.00;;;14.60;53.40
66021;BME280;52789;59.980;30.346;2023-05-19T12:39:26;102934.81;;;14.57;53.12
66021;BME280;52789;59.980;30.346;2023-05-19T12:41:52;102936.91;;;14.54;53.52
66021;BME280;52789;59.980;30.346;2023-05-19T12:44:24;102946.94;;;14.52;52.99
66021;BME280;52789;59.980;30.346;2023-05-19T12:46:52;102950.59;;;14.51;51.91
66021;BME280;52789;59.980;30.346;2023-05-19T12:49:17;102943.41;;;14.51;52.07
66021;BME280;52789;59.980;30.346;2023-05-19T12:51:50;102954.78;;;14.44;51.88
66021;BME280;52789;59.980;30.346;2023-05-19T12:54:17;102950.19;;;14.35;52.74
66021;BME280;52789;59.980;30.346;2023-05-19T12:56:48;102957.84;;;14.39;53.22
66021;BME280;52789;59.980;30.346;2023-05-19T12:59:19;102943.31;;;14.42;52.11
66021;BME280;52789;59.980;30.346;2023-05-19T13:01:45;102954.16;;;14.40;51.62
66021;BME280;52789;59.980;30.346;2023-05-19T13:04:10;102956.47;;;14.45;51.41
66021;BME280;52789;59.980;30.346;2023-05-19T13:06:35;102947.34;;;14.47;51.82
66021;BME280;52789;59.980;30.346;2023-05-19T13:09:01;102963.44;;;14.47;51.91
66021;BME280;52789;59.980;30.346;2023-05-19T13:11:27;102959.06;;;14.46;51.63
66021;BME280;52789;59.980;30.346;2023-05-19T13:13:53;102960.78;;;14.36;52.36
66021;BME280;52789;59.980;30.346;2023-05-19T13:16:18;102959.81;;;14.37;52.94
66021;BME280;52789;59.980;30.346;2023-05-19T13:18:43;102955.69;;;14.33;52.75
66021;BME280;52789;59.980;30.346;2023-05-19T13:21:09;102955.69;;;14.33;53.39
66021;BME280;52789;59.980;30.346;2023-05-19T13:23:34;102962.63;;;14.36;53.58
66021;BME280;52789;59.980;30.346;2023-05-19T13:25:59;102954.00;;;14.32;53.86
66021;BME280;52789;59.980;30.346;2023-05-19T13:28:25;102962.22;;;14.40;53.53
66021;BME280;52789;59.980;30.346;2023-05-19T13:30:50;102948.94;;;14.39;53.82
66021;BME280;52789;59.980;30.346;2023-05-19T13:33:16;102952.19;;;14.42;53.18
66021;BME280;52789;59.980;30.346;2023-05-19T13:35:41;102951.84;;;14.47;53.13
66021;BME280;52789;59.980;30.346;2023-05-19T13:38:07;102957.31;;;14.45;53.15